sensor_id;sensor_type;location;lat;lon;timestamp;P1;durP1;ratioP1;P2;durP2;ratioP2
57889;SDS011;43707;50.184;18.966;2023-12-07T00:01:13;2.40;;;2.10;;
57889;SDS011;43707;50.184;18.966;2023-12-07T00:03:39;2.50;;;2.30;;
57889;SDS011;43707;50.184;18.966;2023-12-07T00:06:04;2.30;;;2.10;;
57889;SDS011;43707;50.184;18.966;2023-12-07T00:08:30;2.80;;;2.30;;
57889;SDS011;43707;50.184;18.966;2023-12-07T00:10:55;2.70;;;2.30;;
57889;SDS011;43707;50.184;18.966;2023-12-07T00:13:21;2.40;;;2.20;;
57889;SDS011;43707;50.184;18.966;2023-12-07T00:15:46;2.10;;;1.90;;
57889;SDS011;43707;50.184;18.966;2023-12-07T00:18:11;2.20;;;2.00;;
57889;SDS011;43707;50.184;18.966;2023-12-07T00:20:37;2.10;;;1.80;;
57889;SDS011;43707;50.184;18.966;2023-12-07T00:23:02;3.80;;;2.70;;
57889;SDS011;43707;50.184;18.966;2023-12-07T00:25:28;5.80;;;2.50;;
57889;SDS011;43707;50.184;18.966;2023-12-07T00:27:53;3.60;;;2.70;;
57889;SDS011;43707;50.184;18.966;2023-12-07T00:30:19;2.90;;;2.50;;
57889;SDS011;43707;50.184;18.966;2023-12-07T00:32:44;2.60;;;2.20;;
57889;SDS011;43707;50.184;18.966;2023-12-07T00:35:10;2.50;;;2.20;;
57889;SDS011;43707;50.184;18.966;2023-12-07T00:37:36;2.90;;;2.60;;
57889;SDS011;43707;50.184;18.966;2023-12-07T00:40:01;3.00;;;2.40;;
57889;SDS011;43707;50.184;18.966;2023-12-07T00:42:28;2.90;;;2.70;;
57889;SDS011;43707;50.184;18.966;2023-12-07T00:44:53;2.30;;;2.10;;
57889;SDS011;43707;50.184;18.966;2023-12-07T00:47:19;3.70;;;2.80;;
57889;SDS011;43707;50.184;18.966;2023-12-07T00:49:44;4.40;;;3.10;;
57889;SDS011;43707;50.184;18.966;2023-12-07T00:52:09;3.50;;;2.20;;
57889;SDS011;43707;50.184;18.966;2023-12-07T00:54:35;3.10;;;2.40;;
57889;SDS011;43707;50.184;18.966;2023-12-07T00:57:00;3.10;;;2.80;;
57889;SDS011;43707;50.184;18.966;2023-12-07T00:59:26;3.10;;;2.60;;
57889;SDS011;43707;50.184;18.966;2023-12-07T01:01:51;2.90;;;2.60;;
57889;SDS011;43707;50.184;18.966;2023-12-07T01:04:16;5.10;;;3.20;;
57889;SDS011;43707;50.184;18.966;2023-12-07T01:06:42;2.80;;;2.40;;
57889;SDS011;43707;50.184;18.966;2023-12-07T01:09:08;2.50;;;2.00;;
57889;SDS011;43707;50.184;18.966;2023-12-07T01:11:38;2.50;;;2.30;;
57889;SDS011;43707;50.184;18.966;2023-12-07T01:14:07;3.00;;;2.70;;
57889;SDS011;43707;50.184;18.966;2023-12-07T01:16:32;2.90;;;2.60;;
57889;SDS011;43707;50.184;18.966;2023-12-07T01:18:58;2.80;;;2.60;;
57889;SDS011;43707;50.184;18.966;2023-12-07T01:21:23;2.40;;;2.10;;
57889;SDS011;43707;50.184;18.966;2023-12-07T01:23:49;3.00;;;2.50;;
57889;SDS011;43707;50.184;18.966;2023-12-07T01:26:14;2.70;;;2.20;;
57889;SDS011;43707;50.184;18.966;2023-12-07T01:28:39;3.20;;;2.80;;
57889;SDS011;43707;50.184;18.966;2023-12-07T01:31:05;3.50;;;2.80;;
57889;SDS011;43707;50.184;18.966;2023-12-07T01:33:30;2.80;;;2.50;;
57889;SDS011;43707;50.184;18.966;2023-12-07T01:35:56;2.50;;;2.30;;
57889;SDS011;43707;50.184;18.966;2023-12-07T01:38:21;2.90;;;2.60;;
57889;SDS011;43707;50.184;18.966;2023-12-07T01:40:47;3.00;;;2.50;;
57889;SDS011;43707;50.184;18.966;2023-12-07T01:43:12;2.80;;;2.30;;
57889;SDS011;43707;50.184;18.966;2023-12-07T01:45:38;3.60;;;2.50;;
57889;SDS011;43707;50.184;18.966;2023-12-07T01:48:03;3.00;;;2.20;;
57889;SDS011;43707;50.184;18.966;2023-12-07T01:50:29;2.50;;;2.30;;
57889;SDS011;43707;50.184;18.966;2023-12-07T01:52:57;3.00;;;2.60;;
57889;SDS011;43707;50.184;18.966;2023-12-07T01:55:25;3.60;;;2.70;;
57889;SDS011;43707;50.184;18.966;2023-12-07T01:57:52;3.40;;;2.60;;
57889;SDS011;43707;50.184;18.966;2023-12-07T02:00:18;2.80;;;2.50;;
57889;SDS011;43707;50.184;18.966;2023-12-07T02:02:44;2.20;;;1.90;;
57889;SDS011;43707;50.184;18.966;2023-12-07T02:05:10;2.30;;;1.90;;
57889;SDS011;43707;50.184;18.966;2023-12-07T02:07:38;2.80;;;2.10;;
57889;SDS011;43707;50.184;18.966;2023-12-07T02:10:06;2.50;;;1.90;;
57889;SDS011;43707;50.184;18.966;2023-12-07T02:12:31;2.70;;;2.30;;
57889;SDS011;43707;50.184;18.966;2023-12-07T02:14:57;2.60;;;2.10;;
57889;SDS011;43707;50.184;18.966;2023-12-07T02:23:00;2.30;;;2.10;;
57889;SDS011;43707;50.184;18.966;2023-12-07T02:25:29;2.00;;;1.80;;
57889;SDS011;43707;50.184;18.966;2023-12-07T02:27:57;3.20;;;2.40;;
57889;SDS011;43707;50.184;18.966;2023-12-07T02:30:23;2.00;;;1.80;;
57889;SDS011;43707;50.184;18.966;2023-12-07T02:32:48;3.00;;;2.10;;
57889;SDS011;43707;50.184;18.966;2023-12-07T02:35:14;3.10;;;2.00;;
57889;SDS011;43707;50.184;18.966;2023-12-07T02:37:43;5.10;;;2.10;;
57889;SDS011;43707;50.184;18.966;2023-12-07T02:40:09;2.50;;;2.10;;
57889;SDS011;43707;50.184;18.966;2023-12-07T02:42:37;4.10;;;2.00;;
57889;SDS011;43707;50.184;18.966;2023-12-07T02:45:05;3.00;;;2.30;;
57889;SDS011;43707;50.184;18.966;2023-12-07T02:47:31;2.90;;;2.20;;
57889;SDS011;43707;50.184;18.966;2023-12-07T02:49:56;3.10;;;2.30;;
57889;SDS011;43707;50.184;18.966;2023-12-07T02:52:22;3.80;;;2.10;;
57889;SDS011;43707;50.184;18.966;2023-12-07T02:54:47;5.30;;;2.90;;
57889;SDS011;43707;50.184;18.966;2023-12-07T02:57:13;4.30;;;2.60;;
57889;SDS011;43707;50.184;18.966;2023-12-07T02:59:40;5.20;;;3.00;;
57889;SDS011;43707;50.184;18.966;2023-12-07T03:02:05;3.60;;;2.40;;
57889;SDS011;43707;50.184;18.966;2023-12-07T03:04:31;3.10;;;2.30;;
57889;SDS011;43707;50.184;18.966;2023-12-07T03:06:56;3.10;;;2.50;;
57889;SDS011;43707;50.184;18.966;2023-12-07T03:09:21;2.70;;;2.10;;
57889;SDS011;43707;50.184;18.966;2023-12-07T03:11:47;2.50;;;2.00;;
57889;SDS011;43707;50.184;18.966;2023-12-07T03:14:12;3.20;;;2.00;;
57889;SDS011;43707;50.184;18.966;2023-12-07T03:16:38;2.50;;;2.10;;
57889;SDS011;43707;50.184;18.966;2023-12-07T03:19:04;2.30;;;2.10;;
57889;SDS011;43707;50.184;18.966;2023-12-07T03:21:29;2.00;;;1.80;;
57889;SDS011;43707;50.184;18.966;2023-12-07T03:23:55;2.40;;;2.00;;
57889;SDS011;43707;50.184;18.966;2023-12-07T03:26:20;2.40;;;2.00;;
57889;SDS011;43707;50.184;18.966;2023-12-07T03:28:46;2.80;;;1.90;;
57889;SDS011;43707;50.184;18.966;2023-12-07T03:31:11;2.60;;;2.10;;
57889;SDS011;43707;50.184;18.966;2023-12-07T03:33:36;1.80;;;1.50;;
57889;SDS011;43707;50.184;18.966;2023-12-07T03:36:03;2.50;;;1.90;;
57889;SDS011;43707;50.184;18.966;2023-12-07T03:38:30;3.00;;;2.10;;
57889;SDS011;43707;50.184;18.966;2023-12-07T03:40:55;3.00;;;2.20;;
57889;SDS011;43707;50.184;18.966;2023-12-07T03:43:21;3.20;;;2.10;;
57889;SDS011;43707;50.184;18.966;2023-12-07T03:45:46;1.90;;;1.70;;
57889;SDS011;43707;50.184;18.966;2023-12-07T03:48:12;1.80;;;1.60;;
57889;SDS011;43707;50.184;18.966;2023-12-07T03:50:37;2.30;;;1.80;;
57889;SDS011;43707;50.184;18.966;2023-12-07T03:53:03;1.90;;;1.70;;
57889;SDS011;43707;50.184;18.966;2023-12-07T03:55:28;2.00;;;1.80;;
57889;SDS011;43707;50.184;18.966;2023-12-07T03:57:54;1.90;;;1.70;;
57889;SDS011;43707;50.184;18.966;2023-12-07T04:00:19;3.70;;;2.10;;
57889;SDS011;43707;50.184;18.966;2023-12-07T04:02:44;5.10;;;2.80;;
57889;SDS011;43707;50.184;18.966;2023-12-07T04:05:10;3.80;;;2.60;;
57889;SDS011;43707;50.184;18.966;2023-12-07T04:07:37;3.40;;;2.70;;
57889;SDS011;43707;50.184;18.966;2023-12-07T04:10:02;4.90;;;3.20;;
57889;SDS011;43707;50.184;18.966;2023-12-07T04:12:31;5.50;;;3.90;;
57889;SDS011;43707;50.184;18.966;2023-12-07T04:14:56;4.90;;;3.90;;
57889;SDS011;43707;50.184;18.966;2023-12-07T04:17:22;5.10;;;3.80;;
57889;SDS011;43707;50.184;18.966;2023-12-07T04:19:47;4.20;;;3.30;;
57889;SDS011;43707;50.184;18.966;2023-12-07T04:22:13;4.70;;;3.00;;
57889;SDS011;43707;50.184;18.966;2023-12-07T04:24:38;3.60;;;2.80;;
57889;SDS011;43707;50.184;18.966;2023-12-07T04:27:03;3.80;;;2.90;;
57889;SDS011;43707;50.184;18.966;2023-12-07T04:29:29;3.70;;;2.80;;
57889;SDS011;43707;50.184;18.966;2023-12-07T04:31:55;3.90;;;2.90;;
57889;SDS011;43707;50.184;18.966;2023-12-07T04:34:20;4.30;;;3.30;;
57889;SDS011;43707;50.184;18.966;2023-12-07T04:36:46;2.90;;;2.50;;
57889;SDS011;43707;50.184;18.966;2023-12-07T04:39:11;2.60;;;2.10;;
57889;SDS011;43707;50.184;18.966;2023-12-07T04:41:37;4.30;;;2.60;;
57889;SDS011;43707;50.184;18.966;2023-12-07T04:44:02;3.70;;;2.70;;
57889;SDS011;43707;50.184;18.966;2023-12-07T04:46:28;2.70;;;2.20;;
57889;SDS011;43707;50.184;18.966;2023-12-07T04:48:54;2.50;;;2.30;;
57889;SDS011;43707;50.184;18.966;2023-12-07T04:51:19;2.40;;;1.90;;
57889;SDS011;43707;50.184;18.966;2023-12-07T04:53:45;2.30;;;2.10;;
57889;SDS011;43707;50.184;18.966;2023-12-07T04:56:11;2.80;;;2.10;;
57889;SDS011;43707;50.184;18.966;2023-12-07T04:58:36;2.90;;;2.10;;
57889;SDS011;43707;50.184;18.966;2023-12-07T05:01:02;4.00;;;2.60;;
57889;SDS011;43707;50.184;18.966;2023-12-07T05:03:29;1.90;;;1.70;;
57889;SDS011;43707;50.184;18.966;2023-12-07T05:05:54;3.00;;;2.40;;
57889;SDS011;43707;50.184;18.966;2023-12-07T05:08:20;1.80;;;1.60;;
57889;SDS011;43707;50.184;18.966;2023-12-07T05:10:45;3.40;;;2.10;;
57889;SDS011;43707;50.184;18.966;2023-12-07T05:13:11;2.20;;;1.60;;
57889;SDS011;43707;50.184;18.966;2023-12-07T05:15:37;2.70;;;2.10;;
57889;SDS011;43707;50.184;18.966;2023-12-07T05:18:02;2.20;;;2.00;;
57889;SDS011;43707;50.184;18.966;2023-12-07T05:20:28;1.90;;;1.70;;
57889;SDS011;43707;50.184;18.966;2023-12-07T05:22:54;2.30;;;1.70;;
57889;SDS011;43707;50.184;18.966;2023-12-07T05:25:19;2.60;;;1.90;;
57889;SDS011;43707;50.184;18.966;2023-12-07T05:27:45;2.70;;;1.70;;
57889;SDS011;43707;50.184;18.966;2023-12-07T05:30:10;2.50;;;2.10;;
57889;SDS011;43707;50.184;18.966;2023-12-07T05:32:36;4.40;;;3.50;;
57889;SDS011;43707;50.184;18.966;2023-12-07T05:35:01;4.00;;;2.90;;
57889;SDS011;43707;50.184;18.966;2023-12-07T05:37:27;4.80;;;3.60;;
57889;SDS011;43707;50.184;18.966;2023-12-07T05:39:53;4.40;;;3.50;;
57889;SDS011;43707;50.184;18.966;2023-12-07T05:42:18;4.50;;;3.00;;
57889;SDS011;43707;50.184;18.966;2023-12-07T05:44:44;6.50;;;3.70;;
57889;SDS011;43707;50.184;18.966;2023-12-07T05:47:10;5.40;;;3.30;;
57889;SDS011;43707;50.184;18.966;2023-12-07T05:49:35;4.50;;;2.90;;
57889;SDS011;43707;50.184;18.966;2023-12-07T05:52:01;5.10;;;3.00;;
57889;SDS011;43707;50.184;18.966;2023-12-07T05:54:27;4.50;;;3.40;;
57889;SDS011;43707;50.184;18.966;2023-12-07T05:56:52;4.10;;;3.00;;
57889;SDS011;43707;50.184;18.966;2023-12-07T05:59:18;3.80;;;2.70;;
57889;SDS011;43707;50.184;18.966;2023-12-07T06:01:43;3.00;;;2.10;;
57889;SDS011;43707;50.184;18.966;2023-12-07T06:04:09;4.40;;;2.70;;
57889;SDS011;43707;50.184;18.966;2023-12-07T06:06:35;3.10;;;2.50;;
57889;SDS011;43707;50.184;18.966;2023-12-07T06:09:00;4.10;;;2.80;;
57889;SDS011;43707;50.184;18.966;2023-12-07T06:11:26;3.80;;;2.60;;
57889;SDS011;43707;50.184;18.966;2023-12-07T06:13:51;4.50;;;3.10;;
57889;SDS011;43707;50.184;18.966;2023-12-07T06:16:17;3.40;;;2.50;;
57889;SDS011;43707;50.184;18.966;2023-12-07T06:18:43;3.10;;;2.30;;
57889;SDS011;43707;50.184;18.966;2023-12-07T06:21:09;3.60;;;2.80;;
57889;SDS011;43707;50.184;18.966;2023-12-07T06:23:34;2.70;;;2.00;;
57889;SDS011;43707;50.184;18.966;2023-12-07T06:26:00;4.10;;;2.70;;
57889;SDS011;43707;50.184;18.966;2023-12-07T06:28:27;3.60;;;2.80;;
57889;SDS011;43707;50.184;18.966;2023-12-07T06:30:52;3.20;;;2.80;;
57889;SDS011;43707;50.184;18.966;2023-12-07T06:33:18;3.80;;;2.70;;
57889;SDS011;43707;50.184;18.966;2023-12-07T06:35:43;2.90;;;2.40;;
57889;SDS011;43707;50.184;18.966;2023-12-07T06:38:09;2.60;;;2.00;;
57889;SDS011;43707;50.184;18.966;2023-12-07T06:40:34;3.70;;;2.80;;
57889;SDS011;43707;50.184;18.966;2023-12-07T06:42:59;3.30;;;2.60;;
57889;SDS011;43707;50.184;18.966;2023-12-07T06:45:25;2.90;;;2.40;;
57889;SDS011;43707;50.184;18.966;2023-12-07T06:47:50;3.30;;;2.40;;
57889;SDS011;43707;50.184;18.966;2023-12-07T06:50:16;3.50;;;2.60;;
57889;SDS011;43707;50.184;18.966;2023-12-07T06:52:42;2.80;;;2.50;;
57889;SDS011;43707;50.184;18.966;2023-12-07T06:55:07;2.90;;;2.50;;
57889;SDS011;43707;50.184;18.966;2023-12-07T06:57:35;2.90;;;2.40;;
57889;SDS011;43707;50.184;18.966;2023-12-07T07:00:01;3.10;;;2.40;;
57889;SDS011;43707;50.184;18.966;2023-12-07T07:02:30;3.00;;;2.40;;
57889;SDS011;43707;50.184;18.966;2023-12-07T07:04:56;4.50;;;2.90;;
57889;SDS011;43707;50.184;18.966;2023-12-07T07:07:21;4.10;;;2.70;;
57889;SDS011;43707;50.184;18.966;2023-12-07T07:09:47;3.50;;;2.20;;
57889;SDS011;43707;50.184;18.966;2023-12-07T07:12:12;3.20;;;2.30;;
57889;SDS011;43707;50.184;18.966;2023-12-07T07:14:38;4.20;;;2.80;;
57889;SDS011;43707;50.184;18.966;2023-12-07T07:17:04;4.40;;;3.20;;
57889;SDS011;43707;50.184;18.966;2023-12-07T07:19:29;3.20;;;2.80;;
57889;SDS011;43707;50.184;18.966;2023-12-07T07:21:55;2.70;;;2.10;;
57889;SDS011;43707;50.184;18.966;2023-12-07T07:24:21;4.00;;;3.00;;
57889;SDS011;43707;50.184;18.966;2023-12-07T07:26:46;4.20;;;2.70;;
57889;SDS011;43707;50.184;18.966;2023-12-07T07:29:12;2.90;;;2.60;;
57889;SDS011;43707;50.184;18.966;2023-12-07T07:31:37;4.70;;;2.30;;
57889;SDS011;43707;50.184;18.966;2023-12-07T07:34:03;3.30;;;2.50;;
57889;SDS011;43707;50.184;18.966;2023-12-07T07:36:29;3.10;;;2.70;;
57889;SDS011;43707;50.184;18.966;2023-12-07T07:38:55;4.20;;;3.20;;
57889;SDS011;43707;50.184;18.966;2023-12-07T07:41:20;4.00;;;3.10;;
57889;SDS011;43707;50.184;18.966;2023-12-07T07:43:46;3.60;;;2.70;;
57889;SDS011;43707;50.184;18.966;2023-12-07T07:46:11;3.80;;;2.90;;
57889;SDS011;43707;50.184;18.966;2023-12-07T07:48:36;3.80;;;3.00;;
57889;SDS011;43707;50.184;18.966;2023-12-07T07:51:02;3.40;;;1.80;;
57889;SDS011;43707;50.184;18.966;2023-12-07T07:53:28;3.70;;;2.80;;
57889;SDS011;43707;50.184;18.966;2023-12-07T07:55:54;3.50;;;2.70;;
57889;SDS011;43707;50.184;18.966;2023-12-07T07:58:19;4.20;;;3.10;;
57889;SDS011;43707;50.184;18.966;2023-12-07T08:00:45;4.50;;;3.00;;
57889;SDS011;43707;50.184;18.966;2023-12-07T08:03:11;3.70;;;2.80;;
57889;SDS011;43707;50.184;18.966;2023-12-07T08:05:37;3.70;;;2.80;;
57889;SDS011;43707;50.184;18.966;2023-12-07T08:08:03;5.00;;;3.70;;
57889;SDS011;43707;50.184;18.966;2023-12-07T08:10:28;4.70;;;3.20;;
57889;SDS011;43707;50.184;18.966;2023-12-07T08:12:54;5.30;;;3.60;;
57889;SDS011;43707;50.184;18.966;2023-12-07T08:15:19;4.10;;;3.30;;
57889;SDS011;43707;50.184;18.966;2023-12-07T08:17:47;5.00;;;3.00;;
57889;SDS011;43707;50.184;18.966;2023-12-07T08:20:12;6.10;;;2.70;;
57889;SDS011;43707;50.184;18.966;2023-12-07T08:22:41;3.90;;;2.90;;
57889;SDS011;43707;50.184;18.966;2023-12-07T08:25:07;4.50;;;2.80;;
57889;SDS011;43707;50.184;18.966;2023-12-07T08:27:34;3.40;;;3.10;;
57889;SDS011;43707;50.184;18.966;2023-12-07T08:30:02;6.50;;;2.50;;
57889;SDS011;43707;50.184;18.966;2023-12-07T08:32:29;11.80;;;3.20;;
57889;SDS011;43707;50.184;18.966;2023-12-07T08:34:55;12.80;;;3.30;;
57889;SDS011;43707;50.184;18.966;2023-12-07T08:37:20;6.70;;;3.30;;
57889;SDS011;43707;50.184;18.966;2023-12-07T08:39:46;4.00;;;3.20;;
57889;SDS011;43707;50.184;18.966;2023-12-07T08:42:11;5.60;;;3.70;;
57889;SDS011;43707;50.184;18.966;2023-12-07T08:44:37;5.20;;;3.60;;
57889;SDS011;43707;50.184;18.966;2023-12-07T08:47:03;5.10;;;3.70;;
57889;SDS011;43707;50.184;18.966;2023-12-07T08:49:29;5.10;;;3.70;;
57889;SDS011;43707;50.184;18.966;2023-12-07T08:51:54;55.80;;;11.50;;
57889;SDS011;43707;50.184;18.966;2023-12-07T08:54:21;47.20;;;9.00;;
57889;SDS011;43707;50.184;18.966;2023-12-07T08:56:46;75.00;;;12.60;;
57889;SDS011;43707;50.184;18.966;2023-12-07T08:59:12;52.80;;;9.50;;
57889;SDS011;43707;50.184;18.966;2023-12-07T09:01:37;50.20;;;9.80;;
57889;SDS011;43707;50.184;18.966;2023-12-07T09:04:02;39.30;;;9.20;;
57889;SDS011;43707;50.184;18.966;2023-12-07T09:06:28;20.10;;;5.70;;
57889;SDS011;43707;50.184;18.966;2023-12-07T09:08:54;19.70;;;4.70;;
57889;SDS011;43707;50.184;18.966;2023-12-07T09:11:20;20.80;;;4.70;;
57889;SDS011;43707;50.184;18.966;2023-12-07T09:13:46;17.20;;;4.50;;
57889;SDS011;43707;50.184;18.966;2023-12-07T09:16:11;11.40;;;4.30;;
57889;SDS011;43707;50.184;18.966;2023-12-07T09:18:37;13.80;;;4.10;;
57889;SDS011;43707;50.184;18.966;2023-12-07T09:21:02;10.20;;;3.40;;
57889;SDS011;43707;50.184;18.966;2023-12-07T09:23:28;8.20;;;2.80;;
57889;SDS011;43707;50.184;18.966;2023-12-07T09:25:53;10.80;;;4.40;;
57889;SDS011;43707;50.184;18.966;2023-12-07T09:28:19;6.10;;;3.20;;
57889;SDS011;43707;50.184;18.966;2023-12-07T09:30:44;9.30;;;3.50;;
57889;SDS011;43707;50.184;18.966;2023-12-07T09:33:10;5.10;;;2.90;;
57889;SDS011;43707;50.184;18.966;2023-12-07T09:35:35;5.60;;;2.40;;
57889;SDS011;43707;50.184;18.966;2023-12-07T09:38:01;6.90;;;3.50;;
57889;SDS011;43707;50.184;18.966;2023-12-07T09:40:26;4.30;;;2.60;;
57889;SDS011;43707;50.184;18.966;2023-12-07T09:42:53;7.30;;;2.50;;
57889;SDS011;43707;50.184;18.966;2023-12-07T09:45:19;4.20;;;2.80;;
57889;SDS011;43707;50.184;18.966;2023-12-07T09:47:49;8.70;;;2.80;;
57889;SDS011;43707;50.184;18.966;2023-12-07T09:50:18;4.20;;;3.20;;
57889;SDS011;43707;50.184;18.966;2023-12-07T09:52:48;9.60;;;3.20;;
57889;SDS011;43707;50.184;18.966;2023-12-07T09:55:16;9.40;;;3.20;;
57889;SDS011;43707;50.184;18.966;2023-12-07T09:57:42;6.00;;;2.90;;
57889;SDS011;43707;50.184;18.966;2023-12-07T10:00:10;4.90;;;2.30;;
57889;SDS011;43707;50.184;18.966;2023-12-07T10:02:39;4.80;;;3.20;;
57889;SDS011;43707;50.184;18.966;2023-12-07T10:05:06;3.30;;;2.50;;
57889;SDS011;43707;50.184;18.966;2023-12-07T10:07:36;4.00;;;3.10;;
57889;SDS011;43707;50.184;18.966;2023-12-07T10:10:04;4.20;;;3.00;;
57889;SDS011;43707;50.184;18.966;2023-12-07T10:12:30;7.00;;;3.60;;
57889;SDS011;43707;50.184;18.966;2023-12-07T10:14:59;4.70;;;3.40;;
57889;SDS011;43707;50.184;18.966;2023-12-07T10:17:48;3.40;;;3.10;;
57889;SDS011;43707;50.184;18.966;2023-12-07T10:20:17;3.30;;;2.90;;
57889;SDS011;43707;50.184;18.966;2023-12-07T10:22:44;4.20;;;3.50;;
57889;SDS011;43707;50.184;18.966;2023-12-07T10:25:10;4.80;;;3.40;;
57889;SDS011;43707;50.184;18.966;2023-12-07T10:27:37;4.90;;;3.30;;
57889;SDS011;43707;50.184;18.966;2023-12-07T10:30:06;3.80;;;2.80;;
57889;SDS011;43707;50.184;18.966;2023-12-07T10:32:32;4.30;;;3.30;;
57889;SDS011;43707;50.184;18.966;2023-12-07T10:35:01;4.70;;;3.20;;
57889;SDS011;43707;50.184;18.966;2023-12-07T10:37:27;4.20;;;3.20;;
57889;SDS011;43707;50.184;18.966;2023-12-07T10:39:52;5.10;;;3.50;;
57889;SDS011;43707;50.184;18.966;2023-12-07T10:42:19;4.00;;;3.30;;
57889;SDS011;43707;50.184;18.966;2023-12-07T10:44:47;4.80;;;4.20;;
57889;SDS011;43707;50.184;18.966;2023-12-07T10:47:15;4.50;;;3.90;;
57889;SDS011;43707;50.184;18.966;2023-12-07T10:49:41;4.10;;;3.70;;
57889;SDS011;43707;50.184;18.966;2023-12-07T10:52:10;4.50;;;3.70;;
57889;SDS011;43707;50.184;18.966;2023-12-07T10:54:47;3.50;;;2.90;;
57889;SDS011;43707;50.184;18.966;2023-12-07T10:57:17;3.70;;;3.20;;
57889;SDS011;43707;50.184;18.966;2023-12-07T10:59:43;3.60;;;3.10;;
57889;SDS011;43707;50.184;18.966;2023-12-07T11:02:09;4.60;;;3.30;;
57889;SDS011;43707;50.184;18.966;2023-12-07T11:04:35;5.20;;;3.80;;
57889;SDS011;43707;50.184;18.966;2023-12-07T11:07:03;4.60;;;3.50;;
57889;SDS011;43707;50.184;18.966;2023-12-07T11:09:35;3.80;;;3.40;;
57889;SDS011;43707;50.184;18.966;2023-12-07T11:12:05;5.40;;;4.20;;
57889;SDS011;43707;50.184;18.966;2023-12-07T11:14:36;16.60;;;5.00;;
57889;SDS011;43707;50.184;18.966;2023-12-07T11:17:03;8.20;;;4.70;;
57889;SDS011;43707;50.184;18.966;2023-12-07T11:21:54;7.20;;;5.00;;
57889;SDS011;43707;50.184;18.966;2023-12-07T11:24:21;6.70;;;5.80;;
57889;SDS011;43707;50.184;18.966;2023-12-07T11:26:48;5.80;;;4.60;;
57889;SDS011;43707;50.184;18.966;2023-12-07T11:29:14;5.90;;;4.70;;
57889;SDS011;43707;50.184;18.966;2023-12-07T11:31:39;4.80;;;4.20;;
57889;SDS011;43707;50.184;18.966;2023-12-07T11:34:07;4.90;;;4.40;;
57889;SDS011;43707;50.184;18.966;2023-12-07T11:36:38;5.00;;;3.90;;
57889;SDS011;43707;50.184;18.966;2023-12-07T11:41:34;5.70;;;4.70;;
57889;SDS011;43707;50.184;18.966;2023-12-07T11:44:08;14.80;;;4.90;;
57889;SDS011;43707;50.184;18.966;2023-12-07T11:46:35;5.10;;;4.10;;
57889;SDS011;43707;50.184;18.966;2023-12-07T11:49:00;5.90;;;4.20;;
57889;SDS011;43707;50.184;18.966;2023-12-07T11:51:26;9.60;;;3.60;;
57889;SDS011;43707;50.184;18.966;2023-12-07T11:53:54;5.30;;;4.60;;
57889;SDS011;43707;50.184;18.966;2023-12-07T11:56:20;5.50;;;4.50;;
57889;SDS011;43707;50.184;18.966;2023-12-07T11:58:46;6.00;;;4.60;;
57889;SDS011;43707;50.184;18.966;2023-12-07T12:01:12;6.40;;;4.90;;
57889;SDS011;43707;50.184;18.966;2023-12-07T12:03:37;7.90;;;5.60;;
57889;SDS011;43707;50.184;18.966;2023-12-07T12:06:03;7.40;;;4.40;;
57889;SDS011;43707;50.184;18.966;2023-12-07T12:08:31;5.60;;;4.30;;
57889;SDS011;43707;50.184;18.966;2023-12-07T12:10:56;6.50;;;4.50;;
57889;SDS011;43707;50.184;18.966;2023-12-07T12:13:29;5.10;;;4.10;;
57889;SDS011;43707;50.184;18.966;2023-12-07T12:15:57;4.70;;;4.00;;
57889;SDS011;43707;50.184;18.966;2023-12-07T12:18:23;4.30;;;3.70;;
57889;SDS011;43707;50.184;18.966;2023-12-07T12:20:50;4.90;;;4.20;;
57889;SDS011;43707;50.184;18.966;2023-12-07T12:23:16;5.10;;;4.10;;
57889;SDS011;43707;50.184;18.966;2023-12-07T12:25:42;5.00;;;4.40;;
57889;SDS011;43707;50.184;18.966;2023-12-07T12:28:07;4.90;;;4.20;;
57889;SDS011;43707;50.184;18.966;2023-12-07T12:30:33;5.00;;;4.10;;
57889;SDS011;43707;50.184;18.966;2023-12-07T12:32:59;4.50;;;4.00;;
57889;SDS011;43707;50.184;18.966;2023-12-07T12:35:27;3.90;;;3.50;;
57889;SDS011;43707;50.184;18.966;2023-12-07T12:37:54;4.10;;;3.50;;
57889;SDS011;43707;50.184;18.966;2023-12-07T12:40:22;4.90;;;3.80;;
57889;SDS011;43707;50.184;18.966;2023-12-07T12:42:49;4.40;;;3.90;;
57889;SDS011;43707;50.184;18.966;2023-12-07T12:45:16;6.10;;;4.80;;
57889;SDS011;43707;50.184;18.966;2023-12-07T12:47:43;4.60;;;3.40;;
57889;SDS011;43707;50.184;18.966;2023-12-07T12:50:10;4.90;;;4.30;;
57889;SDS011;43707;50.184;18.966;2023-12-07T12:52:36;4.30;;;3.90;;
57889;SDS011;43707;50.184;18.966;2023-12-07T12:55:13;5.80;;;4.40;;
57889;SDS011;43707;50.184;18.966;2023-12-07T12:57:38;5.90;;;4.60;;
57889;SDS011;43707;50.184;18.966;2023-12-07T13:00:04;4.50;;;3.60;;
57889;SDS011;43707;50.184;18.966;2023-12-07T13:02:32;5.70;;;4.00;;
57889;SDS011;43707;50.184;18.966;2023-12-07T13:04:59;4.70;;;3.80;;
57889;SDS011;43707;50.184;18.966;2023-12-07T13:07:24;6.00;;;4.80;;
57889;SDS011;43707;50.184;18.966;2023-12-07T13:09:50;4.10;;;3.30;;
57889;SDS011;43707;50.184;18.966;2023-12-07T13:12:15;4.80;;;3.80;;
57889;SDS011;43707;50.184;18.966;2023-12-07T13:14:41;5.00;;;3.90;;
57889;SDS011;43707;50.184;18.966;2023-12-07T13:17:06;6.70;;;4.80;;
57889;SDS011;43707;50.184;18.966;2023-12-07T13:19:33;4.40;;;4.00;;
57889;SDS011;43707;50.184;18.966;2023-12-07T13:21:59;5.90;;;4.40;;
57889;SDS011;43707;50.184;18.966;2023-12-07T13:24:25;7.00;;;3.70;;
57889;SDS011;43707;50.184;18.966;2023-12-07T13:26:50;6.30;;;4.50;;
57889;SDS011;43707;50.184;18.966;2023-12-07T13:29:16;6.90;;;5.10;;
57889;SDS011;43707;50.184;18.966;2023-12-07T13:31:41;5.00;;;3.90;;
57889;SDS011;43707;50.184;18.966;2023-12-07T13:34:07;5.90;;;4.90;;
57889;SDS011;43707;50.184;18.966;2023-12-07T13:36:33;5.60;;;4.60;;
57889;SDS011;43707;50.184;18.966;2023-12-07T13:39:00;11.00;;;4.50;;
57889;SDS011;43707;50.184;18.966;2023-12-07T13:41:29;5.90;;;4.80;;
57889;SDS011;43707;50.184;18.966;2023-12-07T13:43:54;5.10;;;4.30;;
57889;SDS011;43707;50.184;18.966;2023-12-07T13:46:20;4.80;;;4.00;;
57889;SDS011;43707;50.184;18.966;2023-12-07T13:48:45;4.50;;;3.50;;
57889;SDS011;43707;50.184;18.966;2023-12-07T13:51:12;3.50;;;3.10;;
57889;SDS011;43707;50.184;18.966;2023-12-07T13:53:37;5.30;;;3.40;;
57889;SDS011;43707;50.184;18.966;2023-12-07T13:56:03;4.60;;;3.00;;
57889;SDS011;43707;50.184;18.966;2023-12-07T13:58:30;4.20;;;2.90;;
57889;SDS011;43707;50.184;18.966;2023-12-07T14:00:56;3.90;;;2.70;;
57889;SDS011;43707;50.184;18.966;2023-12-07T14:03:21;3.90;;;3.30;;
57889;SDS011;43707;50.184;18.966;2023-12-07T14:05:46;3.50;;;3.00;;
57889;SDS011;43707;50.184;18.966;2023-12-07T14:08:13;9.90;;;4.30;;
57889;SDS011;43707;50.184;18.966;2023-12-07T14:10:38;3.10;;;2.80;;
57889;SDS011;43707;50.184;18.966;2023-12-07T14:13:04;4.90;;;3.80;;
57889;SDS011;43707;50.184;18.966;2023-12-07T14:15:29;4.10;;;3.30;;
57889;SDS011;43707;50.184;18.966;2023-12-07T14:17:54;5.60;;;2.70;;
57889;SDS011;43707;50.184;18.966;2023-12-07T14:20:20;2.50;;;2.30;;
57889;SDS011;43707;50.184;18.966;2023-12-07T14:22:49;3.00;;;2.70;;
57889;SDS011;43707;50.184;18.966;2023-12-07T14:25:14;3.60;;;2.80;;
57889;SDS011;43707;50.184;18.966;2023-12-07T14:27:42;3.70;;;2.80;;
57889;SDS011;43707;50.184;18.966;2023-12-07T14:30:08;3.60;;;3.20;;
57889;SDS011;43707;50.184;18.966;2023-12-07T14:32:35;3.70;;;2.90;;
57889;SDS011;43707;50.184;18.966;2023-12-07T14:35:01;3.90;;;3.10;;
57889;SDS011;43707;50.184;18.966;2023-12-07T14:37:26;4.20;;;3.00;;